sensor_id;sensor_type;location;lat;lon;timestamp;pressure;altitude;pressure_sealevel;temperature;humidity
21086;BME280;34247;50.064;19.970;2023-02-18T00:37:59;98859.03;;;11.70;97.27
21086;BME280;34247;50.064;19.970;2023-02-18T00:39:11;98845.25;;;11.65;96.90
21086;BME280;34247;50.064;19.970;2023-02-18T00:40:16;98849.38;;;11.69;96.82
21086;BME280;34247;50.064;19.970;2023-02-18T00:41:24;98832.81;;;11.66;97.27
21086;BME280;34247;50.064;19.970;2023-02-18T00:42:30;98841.66;;;11.66;97.48
21086;BME280;34247;50.064;19.970;2023-02-18T00:43:36;98843.56;;;11.64;97.85
21086;BME280;34247;50.064;19.970;2023-02-18T00:44:43;98843.94;;;11.71;97.53
21086;BME280;34247;50.064;19.970;2023-02-18T00:45:59;98840.31;;;11.60;97.30
21086;BME280;34247;50.064;19.970;2023-02-18T00:47:09;98842.72;;;11.64;97.87
21086;BME280;34247;50.064;19.970;2023-02-18T00:48:18;98832.81;;;11.66;97.53
21086;BME280;34247;50.064;19.970;2023-02-18T00:49:24;98820.63;;;11.63;97.04
21086;BME280;34247;50.064;19.970;2023-02-18T00:50:32;98835.00;;;11.60;97.07
21086;BME280;34247;50.064;19.970;2023-02-18T00:51:43;98845.88;;;11.69;97.10
21086;BME280;34247;50.064;19.970;2023-02-18T00:52:48;98838.88;;;11.68;96.63
21086;BME280;34247;50.064;19.970;2023-02-18T00:53:58;98843.22;;;11.69;96.33
21086;BME280;34247;50.064;19.970;2023-02-18T00:55:13;98851.78;;;11.72;96.15
21086;BME280;34247;50.064;19.970;2023-02-18T00:56:19;98846.72;;;11.69;95.80
21086;BME280;34247;50.064;19.970;2023-02-18T00:57:26;98855.19;;;11.74;95.49
21086;BME280;34247;50.064;19.970;2023-02-18T00:58:39;98849.03;;;11.74;94.91
21086;BME280;34247;50.064;19.970;2023-02-18T00:59:43;98855.44;;;11.82;94.42
21086;BME280;34247;50.064;19.970;2023-02-18T01:00:48;98859.28;;;11.78;94.28
21086;BME280;34247;50.064;19.970;2023-02-18T01:01:53;98861.22;;;11.76;94.33
21086;BME280;34247;50.064;19.970;2023-02-18T01:02:58;98877.56;;;11.83;94.03
21086;BME280;34247;50.064;19.970;2023-02-18T01:04:02;98860.94;;;11.79;93.89
21086;BME280;34247;50.064;19.970;2023-02-18T01:05:15;98863.88;;;11.76;94.17
21086;BME280;34247;50.064;19.970;2023-02-18T01:06:24;98868.75;;;11.82;94.00
21086;BME280;34247;50.064;19.970;2023-02-18T01:07:30;98866.78;;;11.84;93.73
21086;BME280;34247;50.064;19.970;2023-02-18T01:08:36;98886.03;;;11.88;93.90
21086;BME280;34247;50.064;19.970;2023-02-18T01:09:40;98877.44;;;11.84;94.14
21086;BME280;34247;50.064;19.970;2023-02-18T01:10:48;98887.72;;;11.89;94.01
21086;BME280;34247;50.064;19.970;2023-02-18T01:11:57;98888.44;;;11.91;93.79
21086;BME280;34247;50.064;19.970;2023-02-18T01:13:02;98897.72;;;11.97;93.29
21086;BME280;34247;50.064;19.970;2023-02-18T01:14:12;98910.06;;;11.86;93.36
21086;BME280;34247;50.064;19.970;2023-02-18T01:15:18;98909.34;;;11.96;93.33
21086;BME280;34247;50.064;19.970;2023-02-18T01:16:24;98893.13;;;11.87;94.00
21086;BME280;34247;50.064;19.970;2023-02-18T01:17:33;98910.41;;;11.93;94.13
21086;BME280;34247;50.064;19.970;2023-02-18T01:18:46;98930.72;;;11.94;95.01
21086;BME280;34247;50.064;19.970;2023-02-18T01:20:10;98930.34;;;11.87;96.10
21086;BME280;34247;50.064;19.970;2023-02-18T01:21:16;98931.59;;;11.83;97.28
21086;BME280;34247;50.064;19.970;2023-02-18T01:22:22;98941.69;;;11.78;97.84
21086;BME280;34247;50.064;19.970;2023-02-18T01:23:38;98966.28;;;11.82;98.52
21086;BME280;34247;50.064;19.970;2023-02-18T01:24:47;98957.06;;;11.75;99.22
21086;BME280;34247;50.064;19.970;2023-02-18T01:25:56;98950.75;;;11.65;99.50
21086;BME280;34247;50.064;19.970;2023-02-18T01:27:13;98951.50;;;11.67;99.71
21086;BME280;34247;50.064;19.970;2023-02-18T01:28:21;98940.50;;;11.60;100.00
21086;BME280;34247;50.064;19.970;2023-02-18T01:29:28;98964.41;;;11.60;100.00
21086;BME280;34247;50.064;19.970;2023-02-18T01:30:36;98945.56;;;11.52;99.00
21086;BME280;34247;50.064;19.970;2023-02-18T01:31:44;98926.97;;;11.52;98.27
21086;BME280;34247;50.064;19.970;2023-02-18T01:33:11;98936.47;;;11.43;97.89
21086;BME280;34247;50.064;19.970;2023-02-18T01:34:38;98957.38;;;11.48;97.21
21086;BME280;34247;50.064;19.970;2023-02-18T01:35:44;98937.81;;;11.38;95.45
21086;BME280;34247;50.064;19.970;2023-02-18T01:36:50;98943.13;;;11.38;94.45
21086;BME280;34247;50.064;19.970;2023-02-18T01:37:56;98936.34;;;11.33;93.53
21086;BME280;34247;50.064;19.970;2023-02-18T01:39:34;98941.53;;;11.24;93.28
21086;BME280;34247;50.064;19.970;2023-02-18T01:40:51;98942.97;;;11.28;92.85
21086;BME280;34247;50.064;19.970;2023-02-18T01:42:31;98947.16;;;11.19;91.18
21086;BME280;34247;50.064;19.970;2023-02-18T01:43:37;98960.00;;;11.25;91.58
21086;BME280;34247;50.064;19.970;2023-02-18T01:46:46;98940.88;;;11.20;89.75
21086;BME280;34247;50.064;19.970;2023-02-18T01:49:34;98917.09;;;11.19;88.86
21086;BME280;34247;50.064;19.970;2023-02-18T01:50:47;98925.66;;;11.11;88.78
21086;BME280;34247;50.064;19.970;2023-02-18T01:51:59;98951.50;;;11.09;88.09
21086;BME280;34247;50.064;19.970;2023-02-18T01:53:20;98929.59;;;10.94;88.02
21086;BME280;34247;50.064;19.970;2023-02-18T01:54:59;98952.81;;;11.03;87.21
21086;BME280;34247;50.064;19.970;2023-02-18T01:56:57;98952.47;;;11.08;85.38
21086;BME280;34247;50.064;19.970;2023-02-18T01:58:17;98941.91;;;10.95;85.35
21086;BME280;34247;50.064;19.970;2023-02-18T01:59:36;98944.19;;;11.00;84.49
21086;BME280;34247;50.064;19.970;2023-02-18T02:00:44;98951.44;;;10.98;83.70
21086;BME280;34247;50.064;19.970;2023-02-18T02:02:15;98969.31;;;10.96;82.60
21086;BME280;34247;50.064;19.970;2023-02-18T02:03:27;98946.25;;;10.96;82.39
21086;BME280;34247;50.064;19.970;2023-02-18T02:04:36;98935.75;;;10.95;82.74
21086;BME280;34247;50.064;19.970;2023-02-18T02:05:44;98942.75;;;10.96;81.73
21086;BME280;34247;50.064;19.970;2023-02-18T02:06:52;98959.38;;;10.87;80.86
21086;BME280;34247;50.064;19.970;2023-02-18T02:08:02;98947.88;;;10.86;80.32
21086;BME280;34247;50.064;19.970;2023-02-18T02:09:27;98952.34;;;10.86;79.53
21086;BME280;34247;50.064;19.970;2023-02-18T02:14:19;98963.28;;;10.94;74.54
21086;BME280;34247;50.064;19.970;2023-02-18T02:26:40;98969.31;;;10.96;69.20
21086;BME280;34247;50.064;19.970;2023-02-18T02:35:44;98963.94;;;10.85;67.11
21086;BME280;34247;50.064;19.970;2023-02-18T02:37:26;98951.63;;;10.84;67.53
21086;BME280;34247;50.064;19.970;2023-02-18T02:46:45;98959.91;;;10.68;66.79
21086;BME280;34247;50.064;19.970;2023-02-18T02:48:09;98974.41;;;10.75;67.07
21086;BME280;34247;50.064;19.970;2023-02-18T02:49:46;98969.22;;;10.73;66.68
21086;BME280;34247;50.064;19.970;2023-02-18T02:52:52;98972.09;;;10.70;64.80
21086;BME280;34247;50.064;19.970;2023-02-18T02:54:20;98990.91;;;10.67;63.67
21086;BME280;34247;50.064;19.970;2023-02-18T02:55:26;98969.94;;;10.75;62.28
21086;BME280;34247;50.064;19.970;2023-02-18T02:56:38;98987.03;;;10.71;62.39
21086;BME280;34247;50.064;19.970;2023-02-18T02:57:58;98991.91;;;10.77;62.18
21086;BME280;34247;50.064;19.970;2023-02-18T05:15:26;99094.34;;;9.80;53.17
21086;BME280;34247;50.064;19.970;2023-02-18T05:16:30;99100.25;;;9.83;51.90
21086;BME280;34247;50.064;19.970;2023-02-18T05:17:35;99099.63;;;9.80;51.32
21086;BME280;34247;50.064;19.970;2023-02-18T05:18:39;99090.00;;;9.79;49.93
21086;BME280;34247;50.064;19.970;2023-02-18T05:19:44;99079.81;;;9.73;50.17
21086;BME280;34247;50.064;19.970;2023-02-18T05:20:48;99098.69;;;9.81;49.71
21086;BME280;34247;50.064;19.970;2023-02-18T05:21:52;99088.09;;;9.81;49.05
21086;BME280;34247;50.064;19.970;2023-02-18T05:22:57;99100.69;;;9.77;49.23
21086;BME280;34247;50.064;19.970;2023-02-18T05:24:03;99091.16;;;9.75;49.34
21086;BME280;34247;50.064;19.970;2023-02-18T05:25:13;99102.59;;;9.75;48.93
21086;BME280;34247;50.064;19.970;2023-02-18T05:26:19;99094.53;;;9.77;48.63
21086;BME280;34247;50.064;19.970;2023-02-18T05:27:24;99074.63;;;9.71;48.81
21086;BME280;34247;50.064;19.970;2023-02-18T05:28:30;99115.22;;;9.72;48.25
21086;BME280;34247;50.064;19.970;2023-02-18T05:29:34;99100.28;;;9.71;48.37
21086;BME280;34247;50.064;19.970;2023-02-18T05:30:40;99094.53;;;9.64;47.71
21086;BME280;34247;50.064;19.970;2023-02-18T05:31:47;99090.09;;;9.64;47.84
21086;BME280;34247;50.064;19.970;2023-02-18T05:32:52;99105.03;;;9.65;47.46
21086;BME280;34247;50.064;19.970;2023-02-18T05:33:57;99114.16;;;9.74;47.04
21086;BME280;34247;50.064;19.970;2023-02-18T05:35:02;99114.03;;;9.76;47.41
21086;BME280;34247;50.064;19.970;2023-02-18T05:36:16;99105.13;;;9.77;46.71
21086;BME280;34247;50.064;19.970;2023-02-18T05:37:22;99099.41;;;9.70;46.73
21086;BME280;34247;50.064;19.970;2023-02-18T05:38:27;99112.47;;;9.73;46.68
21086;BME280;34247;50.064;19.970;2023-02-18T05:39:33;99111.38;;;9.76;46.82
21086;BME280;34247;50.064;19.970;2023-02-18T05:40:38;99112.34;;;9.75;46.83
21086;BME280;34247;50.064;19.970;2023-02-18T05:41:43;99116.59;;;9.77;46.75
21086;BME280;34247;50.064;19.970;2023-02-18T05:42:50;99098.47;;;9.71;46.73
21086;BME280;34247;50.064;19.970;2023-02-18T05:43:56;99101.00;;;9.73;46.84
21086;BME280;34247;50.064;19.970;2023-02-18T05:45:20;99104.50;;;9.73;47.00
21086;BME280;34247;50.064;19.970;2023-02-18T05:46:25;99106.31;;;9.73;47.17
21086;BME280;34247;50.064;19.970;2023-02-18T05:47:30;99105.88;;;9.66;47.29
21086;BME280;34247;50.064;19.970;2023-02-18T05:48:35;99102.91;;;9.71;47.75
21086;BME280;34247;50.064;19.970;2023-02-18T05:49:41;99104.63;;;9.72;47.79
21086;BME280;34247;50.064;19.970;2023-02-18T05:50:46;99119.44;;;9.74;47.95
21086;BME280;34247;50.064;19.970;2023-02-18T05:51:53;99105.47;;;9.72;48.33
21086;BME280;34247;50.064;19.970;2023-02-18T05:52:58;99109.81;;;9.73;48.52
21086;BME280;34247;50.064;19.970;2023-02-18T05:54:03;99108.31;;;9.69;48.77
21086;BME280;34247;50.064;19.970;2023-02-18T05:55:13;99115.28;;;9.70;48.92
21086;BME280;34247;50.064;19.970;2023-02-18T05:56:17;99105.75;;;9.67;49.33
21086;BME280;34247;50.064;19.970;2023-02-18T05:57:22;99117.09;;;9.70;49.79
21086;BME280;34247;50.064;19.970;2023-02-18T05:58:26;99114.22;;;9.60;49.83
21086;BME280;34247;50.064;19.970;2023-02-18T05:59:31;99135.66;;;9.70;50.17
21086;BME280;34247;50.064;19.970;2023-02-18T06:00:35;99118.28;;;9.65;50.21
21086;BME280;34247;50.064;19.970;2023-02-18T06:01:41;99134.19;;;9.65;50.55
21086;BME280;34247;50.064;19.970;2023-02-18T06:02:46;99127.69;;;9.57;50.69
21086;BME280;34247;50.064;19.970;2023-02-18T06:03:52;99138.63;;;9.65;50.45
21086;BME280;34247;50.064;19.970;2023-02-18T06:04:56;99133.53;;;9.62;49.13
21086;BME280;34247;50.064;19.970;2023-02-18T06:06:01;99124.38;;;9.53;49.09
21086;BME280;34247;50.064;19.970;2023-02-18T06:07:10;99128.53;;;9.57;48.28
21086;BME280;34247;50.064;19.970;2023-02-18T06:08:15;99140.50;;;9.63;47.92
21086;BME280;34247;50.064;19.970;2023-02-18T06:09:23;99131.38;;;9.54;47.90
21086;BME280;34247;50.064;19.970;2023-02-18T06:10:28;99141.38;;;9.63;47.94
21086;BME280;34247;50.064;19.970;2023-02-18T06:11:33;99151.03;;;9.64;47.72
21086;BME280;34247;50.064;19.970;2023-02-18T06:12:38;99134.38;;;9.62;47.69
21086;BME280;34247;50.064;19.970;2023-02-18T06:13:45;99137.56;;;9.67;48.04
21086;BME280;34247;50.064;19.970;2023-02-18T06:14:51;99123.97;;;9.59;47.50
21086;BME280;34247;50.064;19.970;2023-02-18T06:15:56;99129.63;;;9.67;47.91
21086;BME280;34247;50.064;19.970;2023-02-18T06:17:02;99130.91;;;9.75;47.78
21086;BME280;34247;50.064;19.970;2023-02-18T06:18:11;99126.97;;;9.67;47.17
21086;BME280;34247;50.064;19.970;2023-02-18T06:19:18;99140.22;;;9.67;46.61
21086;BME280;34247;50.064;19.970;2023-02-18T06:20:28;99145.81;;;9.63;46.48
21086;BME280;34247;50.064;19.970;2023-02-18T06:21:32;99110.00;;;9.57;46.35
21086;BME280;34247;50.064;19.970;2023-02-18T06:22:37;99134.28;;;9.64;46.41
21086;BME280;34247;50.064;19.970;2023-02-18T06:23:41;99137.78;;;9.64;46.10
21086;BME280;34247;50.064;19.970;2023-02-18T06:24:46;99114.34;;;9.58;45.70
21086;BME280;34247;50.064;19.970;2023-02-18T06:25:56;99112.66;;;9.57;45.82
21086;BME280;34247;50.064;19.970;2023-02-18T06:27:03;99130.03;;;9.61;45.74
21086;BME280;34247;50.064;19.970;2023-02-18T06:28:13;99135.03;;;9.66;45.30
21086;BME280;34247;50.064;19.970;2023-02-18T06:29:17;99128.53;;;9.70;45.57
21086;BME280;34247;50.064;19.970;2023-02-18T06:30:21;99109.59;;;9.63;45.30
21086;BME280;34247;50.064;19.970;2023-02-18T06:31:27;99123.16;;;9.72;45.32
21086;BME280;34247;50.064;19.970;2023-02-18T06:32:32;99124.66;;;9.76;45.31
21086;BME280;34247;50.064;19.970;2023-02-18T06:33:37;99123.78;;;9.75;45.24
21086;BME280;34247;50.064;19.970;2023-02-18T06:34:41;99139.28;;;9.81;45.16
21086;BME280;34247;50.064;19.970;2023-02-18T06:35:58;99141.66;;;9.86;45.25
21086;BME280;34247;50.064;19.970;2023-02-18T06:37:03;99134.09;;;9.80;44.79
21086;BME280;34247;50.064;19.970;2023-02-18T06:38:11;99136.41;;;9.84;43.72
21086;BME280;34247;50.064;19.970;2023-02-18T06:39:31;99132.06;;;9.83;43.86
21086;BME280;34247;50.064;19.970;2023-02-18T06:40:46;99144.72;;;9.80;43.71
21086;BME280;34247;50.064;19.970;2023-02-18T06:41:51;99132.28;;;9.80;43.75
21086;BME280;34247;50.064;19.970;2023-02-18T06:42:56;99120.41;;;9.73;44.17
21086;BME280;34247;50.064;19.970;2023-02-18T06:44:00;99139.28;;;9.81;43.52
21086;BME280;34247;50.064;19.970;2023-02-18T06:45:08;99145.44;;;9.82;43.62
21086;BME280;34247;50.064;19.970;2023-02-18T06:46:14;99138.44;;;9.81;43.34
21086;BME280;34247;50.064;19.970;2023-02-18T06:47:18;99149.28;;;9.78;43.54
21086;BME280;34247;50.064;19.970;2023-02-18T06:48:23;99142.91;;;9.80;43.48
21086;BME280;34247;50.064;19.970;2023-02-18T06:49:28;99140.03;;;9.83;43.55
21086;BME280;34247;50.064;19.970;2023-02-18T06:50:33;99143.34;;;9.87;43.26
21086;BME280;34247;50.064;19.970;2023-02-18T06:51:37;99130.38;;;9.82;42.94
21086;BME280;34247;50.064;19.970;2023-02-18T06:52:41;99161.69;;;9.90;43.32
21086;BME280;34247;50.064;19.970;2023-02-18T06:53:46;99140.28;;;9.93;43.52
21086;BME280;34247;50.064;19.970;2023-02-18T06:54:50;99151.63;;;9.95;43.62
21086;BME280;34247;50.064;19.970;2023-02-18T06:55:58;99153.53;;;9.93;43.12
21086;BME280;34247;50.064;19.970;2023-02-18T06:57:04;99153.19;;;9.98;43.29
21086;BME280;34247;50.064;19.970;2023-02-18T06:58:13;99155.75;;;9.99;43.55
21086;BME280;34247;50.064;19.970;2023-02-18T06:59:17;99131.56;;;9.91;42.90
21086;BME280;34247;50.064;19.970;2023-02-18T07:00:25;99147.47;;;9.91;43.20
21086;BME280;34247;50.064;19.970;2023-02-18T07:01:29;99144.06;;;9.89;42.92
21086;BME280;34247;50.064;19.970;2023-02-18T07:02:34;99130.53;;;9.93;42.98
21086;BME280;34247;50.064;19.970;2023-02-18T07:03:38;99149.41;;;10.02;42.88
21086;BME280;34247;50.064;19.970;2023-02-18T07:04:43;99155.84;;;9.98;42.57
21086;BME280;34247;50.064;19.970;2023-02-18T07:05:49;99149.59;;;9.99;42.43
21086;BME280;34247;50.064;19.970;2023-02-18T07:06:53;99144.00;;;10.03;42.49
21086;BME280;34247;50.064;19.970;2023-02-18T07:07:58;99153.97;;;10.00;42.44
21086;BME280;34247;50.064;19.970;2023-02-18T07:09:10;99146.00;;;10.00;42.63
21086;BME280;34247;50.064;19.970;2023-02-18T07:10:14;99158.91;;;9.91;42.15
21086;BME280;34247;50.064;19.970;2023-02-18T07:11:19;99154.16;;;9.97;42.41
21086;BME280;34247;50.064;19.970;2023-02-18T07:12:23;99148.84;;;9.97;42.32
21086;BME280;34247;50.064;19.970;2023-02-18T07:13:27;99154.59;;;10.03;42.28
21086;BME280;34247;50.064;19.970;2023-02-18T07:14:31;99152.69;;;10.05;42.29
21086;BME280;34247;50.064;19.970;2023-02-18T07:15:35;99165.53;;;10.11;42.23
21086;BME280;34247;50.064;19.970;2023-02-18T07:16:40;99170.09;;;10.09;42.21
21086;BME280;34247;50.064;19.970;2023-02-18T07:17:44;99145.69;;;10.04;41.91
21086;BME280;34247;50.064;19.970;2023-02-18T07:18:48;99164.25;;;10.17;41.90
21086;BME280;34247;50.064;19.970;2023-02-18T07:19:52;99169.34;;;10.20;41.79
21086;BME280;34247;50.064;19.970;2023-02-18T07:20:58;99163.19;;;10.19;41.81
21086;BME280;34247;50.064;19.970;2023-02-18T07:22:02;99169.06;;;10.25;41.71
21086;BME280;34247;50.064;19.970;2023-02-18T07:23:11;99168.22;;;10.24;41.88
21086;BME280;34247;50.064;19.970;2023-02-18T07:24:15;99185.00;;;10.25;41.76
21086;BME280;34247;50.064;19.970;2023-02-18T07:25:21;99174.50;;;10.23;41.05
21086;BME280;34247;50.064;19.970;2023-02-18T07:26:26;99170.03;;;10.24;40.57
21086;BME280;34247;50.064;19.970;2023-02-18T07:27:31;99162.63;;;10.29;40.33
21086;BME280;34247;50.064;19.970;2023-02-18T07:28:37;99162.50;;;10.30;40.58
21086;BME280;34247;50.064;19.970;2023-02-18T07:29:47;99173.84;;;10.32;40.44
21086;BME280;34247;50.064;19.970;2023-02-18T07:30:53;99156.13;;;10.33;40.71
21086;BME280;34247;50.064;19.970;2023-02-18T07:31:58;99165.03;;;10.32;40.81
21086;BME280;34247;50.064;19.970;2023-02-18T07:33:08;99156.13;;;10.33;40.67
21086;BME280;34247;50.064;19.970;2023-02-18T07:34:14;99143.28;;;10.27;40.78
21086;BME280;34247;50.064;19.970;2023-02-18T07:35:19;99165.91;;;10.32;40.47
21086;BME280;34247;50.064;19.970;2023-02-18T07:36:25;99167.94;;;10.29;40.62
21086;BME280;34247;50.064;19.970;2023-02-18T07:37:30;99160.69;;;10.31;40.71
21086;BME280;34247;50.064;19.970;2023-02-18T07:38:36;99137.69;;;10.44;39.72
21086;BME280;34247;50.064;19.970;2023-02-18T07:39:42;99132.69;;;10.39;40.39
21086;BME280;34247;50.064;19.970;2023-02-18T07:40:48;99149.66;;;10.37;40.48
21086;BME280;34247;50.064;19.970;2023-02-18T07:41:54;99134.59;;;10.37;40.01
21086;BME280;34247;50.064;19.970;2023-02-18T07:42:58;99153.16;;;10.37;40.32
21086;BME280;34247;50.064;19.970;2023-02-18T07:44:13;99137.38;;;10.36;40.16
21086;BME280;34247;50.064;19.970;2023-02-18T07:45:20;99153.69;;;10.30;39.85
21086;BME280;34247;50.064;19.970;2023-02-18T07:46:26;99153.34;;;10.34;40.52
21086;BME280;34247;50.064;19.970;2023-02-18T07:47:31;99145.63;;;10.31;40.60
21086;BME280;34247;50.064;19.970;2023-02-18T07:48:36;99150.81;;;10.33;40.56
21086;BME280;34247;50.064;19.970;2023-02-18T07:49:41;99127.91;;;10.32;40.41
21086;BME280;34247;50.064;19.970;2023-02-18T07:50:55;99147.00;;;10.37;40.36
21086;BME280;34247;50.064;19.970;2023-02-18T07:52:04;99145.09;;;10.39;40.59
21086;BME280;34247;50.064;19.970;2023-02-18T07:53:17;99132.69;;;10.39;40.73
21086;BME280;34247;50.064;19.970;2023-02-18T07:54:24;99136.59;;;10.34;40.58
21086;BME280;34247;50.064;19.970;2023-02-18T07:55:30;99127.13;;;10.42;40.66
21086;BME280;34247;50.064;19.970;2023-02-18T07:56:53;99143.94;;;10.43;40.70
21086;BME280;34247;50.064;19.970;2023-02-18T07:57:57;99153.78;;;10.41;40.28
21086;BME280;34247;50.064;19.970;2023-02-18T07:59:10;99135.31;;;10.39;40.86
21086;BME280;34247;50.064;19.970;2023-02-18T08:00:15;99147.88;;;10.37;40.75
21086;BME280;34247;50.064;19.970;2023-02-18T08:01:19;99131.72;;;10.40;40.88
21086;BME280;34247;50.064;19.970;2023-02-18T08:02:25;99131.72;;;10.40;41.06
21086;BME280;34247;50.064;19.970;2023-02-18T08:03:31;99137.38;;;10.36;41.11
21086;BME280;34247;50.064;19.970;2023-02-18T08:04:36;99119.94;;;10.32;40.72
21086;BME280;34247;50.064;19.970;2023-02-18T08:05:41;99130.25;;;10.36;41.01
21086;BME280;34247;50.064;19.970;2023-02-18T08:06:50;99129.41;;;10.36;41.05
21086;BME280;34247;50.064;19.970;2023-02-18T08:07:56;99136.06;;;10.41;40.60
21086;BME280;34247;50.064;19.970;2023-02-18T08:09:02;99144.03;;;10.41;40.51
21086;BME280;34247;50.064;19.970;2023-02-18T08:10:11;99121.63;;;10.33;40.85
21086;BME280;34247;50.064;19.970;2023-02-18T08:11:16;99132.25;;;10.45;40.62
21086;BME280;34247;50.064;19.970;2023-02-18T08:12:22;99142.03;;;10.45;40.71
21086;BME280;34247;50.064;19.970;2023-02-18T08:13:29;99134.16;;;10.43;40.83
21086;BME280;34247;50.064;19.970;2023-02-18T08:14:34;99146.59;;;10.43;41.35
21086;BME280;34247;50.064;19.970;2023-02-18T08:15:39;99150.94;;;10.44;41.15
21086;BME280;34247;50.064;19.970;2023-02-18T08:16:46;99117.50;;;10.41;40.88
21086;BME280;34247;50.064;19.970;2023-02-18T08:17:54;99147.81;;;10.50;40.65
21086;BME280;34247;50.064;19.970;2023-02-18T08:19:00;99158.38;;;10.52;40.92
21086;BME280;34247;50.064;19.970;2023-02-18T08:20:12;99141.47;;;10.40;40.76
21086;BME280;34247;50.064;19.970;2023-02-18T08:21:19;99124.28;;;10.45;40.47
21086;BME280;34247;50.064;19.970;2023-02-18T08:22:24;99140.41;;;10.42;40.69
21086;BME280;34247;50.064;19.970;2023-02-18T08:23:28;99146.38;;;10.46;40.72
21086;BME280;34247;50.064;19.970;2023-02-18T08:24:34;99138.63;;;10.43;40.43
21086;BME280;34247;50.064;19.970;2023-02-18T08:25:51;99147.94;;;10.48;40.67
21086;BME280;34247;50.064;19.970;2023-02-18T08:26:56;99132.56;;;10.41;40.62
21086;BME280;34247;50.064;19.970;2023-02-18T08:28:05;99146.66;;;10.54;40.05
21086;BME280;34247;50.064;19.970;2023-02-18T08:29:17;99116.44;;;10.44;40.16
21086;BME280;34247;50.064;19.970;2023-02-18T08:30:23;99143.16;;;10.54;40.26
21086;BME280;34247;50.064;19.970;2023-02-18T08:31:30;99152.53;;;10.46;40.56
21086;BME280;34247;50.064;19.970;2023-02-18T08:32:35;99142.63;;;10.48;40.85
21086;BME280;34247;50.064;19.970;2023-02-18T08:33:40;99145.53;;;10.45;40.80
21086;BME280;34247;50.064;19.970;2023-02-18T08:34:46;99130.44;;;10.46;40.96
21086;BME280;34247;50.064;19.970;2023-02-18T08:35:52;99144.66;;;10.58;40.58
21086;BME280;34247;50.064;19.970;2023-02-18T08:36:57;99143.16;;;10.54;40.81
21086;BME280;34247;50.064;19.970;2023-02-18T08:38:01;99156.31;;;10.55;40.84
21086;BME280;34247;50.064;19.970;2023-02-18T08:39:12;99149.31;;;10.54;40.64
21086;BME280;34247;50.064;19.970;2023-02-18T08:40:17;99143.59;;;10.60;40.81
21086;BME280;34247;50.064;19.970;2023-02-18T08:41:36;99147.31;;;10.58;41.15
21086;BME280;34247;50.064;19.970;2023-02-18T13:20:20;98918.13;;;9.85;75.69
21086;BME280;34247;50.064;19.970;2023-02-18T13:21:30;98914.22;;;9.78;76.58
21086;BME280;34247;50.064;19.970;2023-02-18T13:22:37;98906.34;;;9.77;75.54
21086;BME280;34247;50.064;19.970;2023-02-18T13:23:55;98901.16;;;9.75;76.36
21086;BME280;34247;50.064;19.970;2023-02-18T13:25:00;98899.34;;;9.76;75.97
21086;BME280;34247;50.064;19.970;2023-02-18T13:26:10;98902.84;;;9.76;76.02
21086;BME280;34247;50.064;19.970;2023-02-18T13:29:27;98903.94;;;9.74;76.27
21086;BME280;34247;50.064;19.970;2023-02-18T13:31:11;98888.03;;;9.74;76.59
21086;BME280;34247;50.064;19.970;2023-02-18T13:33:00;98889.41;;;9.66;76.88
21086;BME280;34247;50.064;19.970;2023-02-18T13:36:33;98878.50;;;9.58;77.85
21086;BME280;34247;50.064;19.970;2023-02-18T13:39:19;98876.47;;;9.62;77.57
21086;BME280;34247;50.064;19.970;2023-02-18T13:40:29;98857.50;;;9.55;77.87
21086;BME280;34247;50.064;19.970;2023-02-18T13:41:51;98857.50;;;9.55;77.58
21086;BME280;34247;50.064;19.970;2023-02-18T13:46:12;98857.09;;;9.49;78.52
21086;BME280;34247;50.064;19.970;2023-02-18T13:47:44;98865.56;;;9.54;78.59
21086;BME280;34247;50.064;19.970;2023-02-18T13:55:32;98848.81;;;9.66;78.46
21086;BME280;34247;50.064;19.970;2023-02-18T13:57:02;98839.19;;;9.65;78.74
21086;BME280;34247;50.064;19.970;2023-02-18T13:58:22;98840.16;;;9.51;79.87
21086;BME280;34247;50.064;19.970;2023-02-18T13:59:56;98834.00;;;9.51;79.70
21086;BME280;34247;50.064;19.970;2023-02-18T14:03:50;98821.59;;;9.51;79.02
21086;BME280;34247;50.064;19.970;2023-02-18T14:05:19;98814.09;;;9.45;79.18
21086;BME280;34247;50.064;19.970;2023-02-18T14:08:36;98800.56;;;9.37;79.80
21086;BME280;34247;50.064;19.970;2023-02-18T14:09:46;98814.00;;;9.34;80.50
21086;BME280;34247;50.064;19.970;2023-02-18T14:12:38;98802.91;;;9.16;82.46
21086;BME280;34247;50.064;19.970;2023-02-18T14:14:32;98789.97;;;9.11;82.21
21086;BME280;34247;50.064;19.970;2023-02-18T14:15:56;98782.69;;;9.15;82.52
21086;BME280;34247;50.064;19.970;2023-02-18T14:17:33;98783.09;;;9.22;82.17
21086;BME280;34247;50.064;19.970;2023-02-18T14:22:42;98769.13;;;9.07;83.63
21086;BME280;34247;50.064;19.970;2023-02-18T14:23:59;98768.25;;;9.19;82.76
21086;BME280;34247;50.064;19.970;2023-02-18T14:26:31;98770.69;;;9.22;83.23
21086;BME280;34247;50.064;19.970;2023-02-18T14:27:38;98774.94;;;9.25;82.87
21086;BME280;34247;50.064;19.970;2023-02-18T14:49:51;98701.81;;;8.86;87.88
21086;BME280;34247;50.064;19.970;2023-02-18T14:50:58;98718.00;;;8.94;87.22
21086;BME280;34247;50.064;19.970;2023-02-18T14:52:22;98715.13;;;8.97;87.03
21086;BME280;34247;50.064;19.970;2023-02-18T14:53:39;98705.38;;;8.97;86.70
21086;BME280;34247;50.064;19.970;2023-02-18T14:54:48;98705.91;;;9.02;86.61
21086;BME280;34247;50.064;19.970;2023-02-18T14:56:06;98694.25;;;9.05;86.04
21086;BME280;34247;50.064;19.970;2023-02-18T14:57:21;98693.31;;;9.06;86.20
21086;BME280;34247;50.064;19.970;2023-02-18T14:58:44;98704.91;;;8.92;87.01
21086;BME280;34247;50.064;19.970;2023-02-18T14:59:57;98686.97;;;8.96;87.55
21086;BME280;34247;50.064;19.970;2023-02-18T15:01:21;98675.34;;;8.98;87.60
21086;BME280;34247;50.064;19.970;2023-02-18T15:02:28;98682.41;;;8.98;87.80
21086;BME280;34247;50.064;19.970;2023-02-18T15:03:39;98676.50;;;8.94;88.75